createdAt,value
2018-08-09T00:00:16.911Z,9.23
2018-08-09T00:02:46.299Z,8.27
2018-08-09T00:05:15.694Z,10.57
2018-08-09T00:07:45.089Z,11.40
2018-08-09T00:10:14.505Z,10.30
2018-08-09T00:12:43.951Z,7.70
2018-08-09T00:15:13.356Z,9.60
2018-08-09T00:17:43.223Z,11.28
2018-08-09T00:20:13.029Z,8.57
2018-08-09T00:22:42.430Z,7.70
2018-08-09T00:25:11.835Z,10.33
2018-08-09T00:27:41.235Z,10.80
2018-08-09T00:30:10.650Z,8.43
2018-08-09T00:32:40.031Z,9.93
2018-08-09T00:35:09.419Z,8.67
2018-08-09T00:37:38.791Z,17.40
2018-08-09T00:40:09.069Z,9.25
2018-08-09T00:42:38.483Z,12.60
2018-08-09T00:45:08.012Z,10.07
2018-08-09T00:47:37.384Z,7.33
2018-08-09T00:50:06.823Z,10.45
2018-08-09T00:52:36.190Z,14.00
2018-08-09T00:55:05.879Z,9.83
2018-08-09T00:57:35.282Z,11.87
2018-08-09T01:00:05.465Z,12.47
2018-08-09T01:02:34.900Z,9.53
2018-08-09T01:05:04.331Z,9.67
2018-08-09T01:07:33.789Z,10.13
2018-08-09T01:10:03.180Z,10.87
2018-08-09T01:12:32.568Z,15.83
2018-08-09T01:15:01.967Z,7.73
2018-08-09T01:17:31.360Z,6.47
2018-08-09T01:20:00.806Z,14.50
2018-08-09T01:22:30.190Z,9.17
2018-08-09T01:24:59.566Z,10.73
2018-08-09T01:27:28.978Z,9.87
2018-08-09T01:29:58.376Z,12.77
2018-08-09T01:32:27.810Z,8.33
2018-08-09T01:34:57.199Z,10.20
2018-08-09T01:37:26.584Z,9.57
2018-08-09T01:39:55.963Z,11.07
2018-08-09T01:42:42.507Z,12.07
2018-08-09T01:45:11.927Z,10.23
2018-08-09T01:47:41.294Z,10.57
2018-08-09T01:50:10.695Z,14.47
2018-08-09T01:52:40.083Z,10.90
2018-08-09T01:55:09.484Z,9.93
2018-08-09T01:57:38.883Z,8.53
2018-08-09T02:00:08.965Z,9.93
2018-08-09T02:02:38.582Z,11.53
2018-08-09T02:05:09.175Z,11.97
2018-08-09T02:07:38.494Z,7.50
2018-08-09T02:10:09.124Z,9.77
2018-08-09T02:12:38.505Z,9.67
2018-08-09T02:15:07.915Z,10.30
2018-08-09T02:17:37.287Z,6.77
2018-08-09T02:20:06.732Z,13.03
2018-08-09T02:22:36.141Z,7.80
2018-08-09T02:25:05.711Z,6.43
2018-08-09T02:27:35.115Z,12.27
2018-08-09T02:30:05.727Z,8.07
2018-08-09T02:32:35.143Z,12.90
2018-08-09T02:35:04.767Z,9.20
2018-08-09T02:37:34.151Z,9.28
2018-08-09T02:40:03.624Z,13.77
2018-08-09T02:42:32.990Z,10.33
2018-08-09T02:45:02.400Z,7.50
2018-08-09T02:47:31.784Z,15.93
2018-08-09T02:50:01.213Z,13.80
2018-08-09T02:52:30.617Z,12.17
2018-08-09T02:54:59.973Z,11.03
2018-08-09T02:57:29.350Z,11.00
2018-08-09T02:59:58.706Z,9.50
2018-08-09T03:02:28.090Z,10.43
2018-08-09T03:04:57.442Z,13.97
2018-08-09T03:07:26.802Z,12.33
2018-08-09T03:09:56.152Z,12.27
2018-08-09T03:12:25.505Z,9.80
2018-08-09T03:14:54.848Z,9.97
2018-08-09T03:17:24.246Z,14.53
2018-08-09T03:19:53.584Z,12.47
2018-08-09T03:22:22.946Z,14.25
2018-08-09T03:24:52.299Z,12.70
2018-08-09T03:27:21.651Z,8.23
2018-08-09T03:29:50.995Z,8.27
2018-08-09T03:32:20.361Z,8.27
2018-08-09T03:34:49.703Z,9.47
2018-08-09T03:37:19.063Z,8.20
2018-08-09T03:39:48.416Z,13.60
2018-08-09T03:42:17.776Z,13.95
2018-08-09T03:44:47.123Z,9.20
2018-08-09T03:47:16.472Z,12.90
2018-08-09T03:49:45.844Z,12.23
2018-08-09T03:52:15.213Z,10.27
2018-08-09T03:54:44.546Z,11.20
2018-08-09T03:57:13.904Z,7.83
2018-08-09T03:59:43.266Z,9.17
2018-08-09T04:02:12.639Z,11.47
2018-08-09T04:04:41.984Z,11.93
2018-08-09T04:07:11.343Z,16.30
2018-08-09T04:09:40.692Z,9.97
2018-08-09T04:12:10.153Z,16.37
2018-08-09T04:14:39.417Z,8.87
2018-08-09T04:17:17.864Z,9.37
2018-08-09T04:19:47.907Z,10.67
2018-08-09T04:22:17.267Z,10.90
2018-08-09T04:24:47.201Z,9.73
2018-08-09T04:27:16.623Z,9.70
2018-08-09T04:29:46.081Z,10.37
2018-08-09T04:32:15.445Z,11.10
2018-08-09T04:34:44.784Z,14.23
2018-08-09T04:37:14.151Z,11.73
2018-08-09T04:39:43.503Z,12.93
2018-08-09T04:42:12.861Z,12.13
2018-08-09T04:44:42.216Z,10.40
2018-08-09T04:47:11.564Z,14.03
2018-08-09T04:49:40.928Z,10.47
2018-08-09T04:52:10.270Z,10.87
2018-08-09T04:54:39.630Z,16.43
2018-08-09T04:57:08.979Z,13.27
2018-08-09T04:59:38.351Z,10.27
2018-08-09T05:02:08.742Z,10.08
2018-08-09T05:04:38.121Z,9.73
2018-08-09T05:07:07.494Z,13.80
2018-08-09T05:09:36.848Z,17.00
2018-08-09T05:12:06.241Z,17.63
2018-08-09T05:14:35.589Z,12.90
2018-08-09T05:17:04.953Z,11.87
2018-08-09T05:19:34.312Z,15.70
2018-08-09T05:22:03.676Z,14.23
2018-08-09T05:24:33.031Z,11.57
2018-08-09T05:27:02.404Z,16.53
2018-08-09T05:29:31.765Z,16.00
2018-08-09T05:32:01.112Z,13.53
2018-08-09T05:34:30.480Z,13.93
2018-08-09T05:36:59.835Z,13.70
2018-08-09T05:39:29.203Z,15.77
2018-08-09T05:41:58.552Z,14.40
2018-08-09T05:44:27.905Z,18.23
2018-08-09T05:46:57.249Z,19.10
2018-08-09T05:49:26.594Z,12.03
2018-08-09T05:51:55.943Z,16.63
2018-08-09T05:54:25.323Z,12.95
2018-08-09T05:56:54.649Z,12.80
2018-08-09T05:59:24.191Z,17.97
2018-08-09T06:01:53.535Z,19.07
2018-08-09T06:04:22.884Z,13.97
2018-08-09T06:06:52.240Z,16.33
2018-08-09T06:09:21.596Z,14.57
2018-08-09T06:11:50.944Z,16.10
2018-08-09T06:14:20.296Z,15.87
2018-08-09T06:16:49.638Z,13.70
2018-08-09T06:19:18.985Z,17.37
2018-08-09T06:21:48.332Z,17.27
2018-08-09T06:24:17.792Z,15.13
2018-08-09T06:26:47.189Z,12.90
2018-08-09T06:29:16.558Z,13.50
2018-08-09T06:31:45.907Z,17.13
2018-08-09T06:34:15.293Z,21.33
2018-08-09T06:36:44.678Z,16.60
2018-08-09T06:39:14.060Z,13.83
2018-08-09T06:41:43.417Z,22.60
2018-08-09T06:44:12.788Z,15.03
2018-08-09T06:46:42.153Z,18.60
2018-08-09T06:49:11.513Z,14.43
2018-08-09T06:51:40.876Z,16.57
2018-08-09T06:54:10.233Z,14.93
2018-08-09T06:56:39.595Z,19.53
2018-08-09T06:59:09.068Z,16.27
2018-08-09T07:01:38.433Z,16.60
2018-08-09T07:04:08.768Z,17.87
2018-08-09T07:06:38.133Z,17.07
2018-08-09T07:09:10.232Z,15.73
2018-08-09T07:11:39.602Z,11.50
2018-08-09T07:14:08.950Z,14.13
2018-08-09T07:16:38.318Z,14.03
2018-08-09T07:19:07.664Z,13.30
2018-08-09T07:21:37.008Z,9.17
2018-08-09T07:24:06.374Z,8.83
2018-08-09T07:26:35.731Z,7.73
2018-08-09T07:29:05.095Z,10.13
2018-08-09T07:31:34.460Z,7.80
2018-08-09T07:34:03.820Z,10.60
2018-08-09T07:36:33.211Z,8.70
2018-08-09T07:39:02.532Z,6.77
2018-08-09T07:41:31.881Z,6.57
2018-08-09T07:44:01.237Z,7.50
2018-08-09T07:46:30.616Z,6.00
2018-08-09T07:49:00.134Z,9.00
2018-08-09T07:51:29.489Z,6.07
2018-08-09T07:53:58.848Z,5.07
2018-08-09T07:56:28.200Z,4.23
2018-08-09T07:58:57.535Z,5.67
2018-08-09T08:01:26.890Z,4.70
2018-08-09T08:03:56.240Z,4.70
2018-08-09T08:06:25.625Z,5.05
2018-08-09T08:08:54.978Z,3.87
2018-08-09T08:11:24.333Z,4.00
2018-08-09T08:13:53.678Z,4.77
2018-08-09T08:16:23.044Z,5.45
2018-08-09T08:18:52.380Z,6.07
2018-08-09T08:21:21.739Z,5.20
2018-08-09T08:23:51.080Z,8.63
2018-08-09T08:26:20.431Z,6.05
2018-08-09T08:28:49.797Z,5.50
2018-08-09T08:31:19.160Z,5.30
2018-08-09T08:33:48.504Z,5.10
2018-08-09T08:36:17.853Z,7.10
2018-08-09T08:38:47.224Z,4.97
2018-08-09T08:41:16.561Z,5.63
2018-08-09T08:43:45.930Z,7.23
2018-08-09T08:46:15.461Z,6.80
2018-08-09T08:48:44.891Z,5.63
2018-08-09T08:51:14.272Z,6.03
2018-08-09T08:53:43.631Z,5.30
2018-08-09T08:56:12.993Z,5.40
2018-08-09T08:58:42.356Z,7.20
2018-08-09T09:01:11.711Z,4.83
2018-08-09T09:03:41.101Z,4.17
2018-08-09T09:06:10.448Z,5.00
2018-08-09T09:08:39.844Z,5.55
2018-08-09T09:11:09.197Z,4.87
2018-08-09T09:13:38.620Z,5.12
2018-08-09T09:16:09.209Z,4.75
2018-08-09T09:18:38.584Z,5.55
2018-08-09T09:21:07.997Z,7.60
2018-08-09T09:23:37.348Z,5.60
2018-08-09T09:26:06.729Z,8.80
2018-08-09T09:28:36.097Z,6.78
2018-08-09T09:31:05.464Z,4.70
2018-08-09T09:33:34.824Z,6.60
2018-08-09T09:36:04.289Z,7.03
2018-08-09T09:38:33.936Z,9.68
2018-08-09T09:41:03.831Z,6.33
2018-08-09T09:43:33.377Z,7.03
2018-08-09T09:46:02.728Z,6.80
2018-08-09T09:48:32.096Z,12.35
2018-08-09T09:51:01.449Z,10.20
2018-08-09T09:53:30.808Z,6.92
2018-08-09T09:56:00.201Z,4.35
2018-08-09T09:58:29.567Z,6.35
2018-08-09T10:01:04.283Z,6.03
2018-08-09T10:03:33.640Z,4.60
2018-08-09T10:06:02.985Z,6.87
2018-08-09T10:08:32.356Z,5.55
2018-08-09T10:11:01.726Z,6.42
2018-08-09T10:13:31.093Z,5.53
2018-08-09T10:16:00.448Z,9.53
2018-08-09T10:18:29.880Z,5.90
2018-08-09T10:21:05.444Z,4.45
2018-08-09T10:23:34.820Z,5.58
2018-08-09T10:26:04.171Z,4.80
2018-08-09T10:28:33.523Z,7.75
2018-08-09T10:31:02.868Z,4.00
2018-08-09T10:33:32.219Z,6.03
2018-08-09T10:36:01.608Z,4.78
2018-08-09T10:38:30.968Z,4.12
2018-08-09T10:41:00.328Z,4.72
2018-08-09T10:43:29.669Z,4.60
2018-08-09T10:45:59.124Z,5.50
2018-08-09T10:48:28.467Z,4.80
2018-08-09T10:50:57.832Z,4.30
2018-08-09T10:53:27.175Z,4.40
2018-08-09T10:55:56.538Z,4.28
2018-08-09T10:58:25.894Z,5.37
2018-08-09T11:00:55.291Z,5.47
2018-08-09T11:03:24.614Z,4.33
2018-08-09T11:05:53.976Z,4.75
2018-08-09T11:08:23.327Z,5.47
2018-08-09T11:10:52.690Z,3.72
2018-08-09T11:13:22.042Z,4.28
2018-08-09T11:15:51.397Z,5.28
2018-08-09T11:18:20.762Z,5.97
2018-08-09T11:20:50.121Z,3.42
2018-08-09T11:23:19.473Z,5.37
2018-08-09T11:25:48.847Z,6.25
2018-08-09T11:28:18.278Z,4.62
2018-08-09T11:30:47.635Z,5.50
2018-08-09T11:33:16.974Z,5.47
2018-08-09T11:35:46.344Z,3.90
2018-08-09T11:38:15.756Z,4.67
2018-08-09T11:40:45.181Z,5.72
2018-08-09T11:43:14.561Z,4.58
2018-08-09T11:45:44.033Z,6.35
2018-08-09T11:48:13.384Z,7.10
2018-08-09T11:50:42.752Z,4.95
2018-08-09T11:53:12.312Z,5.53
2018-08-09T11:55:41.679Z,5.47
2018-08-09T11:58:11.039Z,6.22
2018-08-09T12:00:40.375Z,4.95
2018-08-09T12:03:09.728Z,5.55
2018-08-09T12:05:39.088Z,4.60
2018-08-09T12:08:08.863Z,4.97
2018-08-09T12:10:53.799Z,5.47
2018-08-09T12:13:23.212Z,4.12
2018-08-09T12:15:52.639Z,4.60
2018-08-09T12:18:22.030Z,6.00
2018-08-09T12:20:51.529Z,7.20
2018-08-09T12:23:20.844Z,4.42
2018-08-09T12:25:50.287Z,5.97
2018-08-09T12:28:19.714Z,6.43
2018-08-09T12:30:49.125Z,6.50
2018-08-09T12:33:18.589Z,5.55
2018-08-09T12:35:47.981Z,7.03
2018-08-09T12:38:17.406Z,7.30
2018-08-09T12:40:46.824Z,4.20
2018-08-09T12:43:16.268Z,5.72
2018-08-09T12:45:45.662Z,5.00
2018-08-09T12:48:15.107Z,5.27
2018-08-09T12:50:44.511Z,7.37
2018-08-09T12:53:13.945Z,6.35
2018-08-09T12:55:43.346Z,8.30
2018-08-09T12:58:12.763Z,7.28
2018-08-09T13:00:42.187Z,6.00
2018-08-09T13:03:11.601Z,10.75
2018-08-09T13:05:41.051Z,5.03
2018-08-09T13:08:10.516Z,10.63
2018-08-09T13:10:39.925Z,7.22
2018-08-09T13:13:09.323Z,6.37
2018-08-09T13:15:38.742Z,5.42
2018-08-09T13:18:09.143Z,14.90
2018-08-09T13:20:38.543Z,6.17
2018-08-09T13:23:07.949Z,9.53
2018-08-09T13:25:37.352Z,7.33
2018-08-09T13:28:07.043Z,5.95
2018-08-09T13:30:36.390Z,14.07
2018-08-09T13:33:05.757Z,4.87
2018-08-09T13:35:35.098Z,7.62
2018-08-09T13:38:04.515Z,8.65
2018-08-09T13:40:33.824Z,9.98
2018-08-09T13:43:03.175Z,9.05
2018-08-09T13:45:32.557Z,14.60
2018-08-09T13:48:01.892Z,10.05
2018-08-09T13:50:31.240Z,11.03
2018-08-09T13:53:00.603Z,7.30
2018-08-09T13:55:29.962Z,12.33
2018-08-09T13:57:59.310Z,8.85
2018-08-09T14:00:28.658Z,10.68
2018-08-09T14:02:58.019Z,6.85
2018-08-09T14:05:27.383Z,8.43
2018-08-09T14:07:56.743Z,10.10
2018-08-09T14:10:26.084Z,6.57
2018-08-09T14:12:55.443Z,7.75
2018-08-09T14:15:24.787Z,7.80
2018-08-09T14:17:54.315Z,13.28
2018-08-09T14:20:23.559Z,9.07
2018-08-09T14:22:52.911Z,11.15
2018-08-09T14:25:22.272Z,8.35
2018-08-09T14:27:51.655Z,21.73
2018-08-09T14:30:21.031Z,24.10
2018-08-09T14:32:50.424Z,29.77
2018-08-09T14:35:19.767Z,18.65
2018-08-09T14:37:49.163Z,12.37
2018-08-09T14:40:18.459Z,7.97
2018-08-09T14:42:47.800Z,12.53
2018-08-09T14:45:17.658Z,14.13
2018-08-09T14:47:47.079Z,8.88
2018-08-09T14:50:16.411Z,5.40
2018-08-09T14:52:45.757Z,8.78
2018-08-09T14:55:15.123Z,7.83
2018-08-09T14:57:44.464Z,10.03
2018-08-09T15:00:17.017Z,10.45
2018-08-09T15:02:46.549Z,11.35
2018-08-09T15:05:16.869Z,9.28
2018-08-09T15:07:46.745Z,10.82
2018-08-09T15:10:17.773Z,7.47
2018-08-09T15:12:47.359Z,9.93
2018-08-09T15:15:16.915Z,9.23
2018-08-09T15:17:46.543Z,6.28
2018-08-09T15:20:16.097Z,7.97
2018-08-09T15:22:45.867Z,5.50
2018-08-09T15:25:15.654Z,14.53
2018-08-09T15:27:45.311Z,6.50
2018-08-09T15:30:17.475Z,10.23
2018-08-09T15:32:47.374Z,8.95
2018-08-09T15:35:17.148Z,5.80
2018-08-09T15:37:46.905Z,13.78
2018-08-09T15:40:16.577Z,12.47
2018-08-09T15:42:46.215Z,6.50
2018-08-09T15:45:16.846Z,6.03
2018-08-09T15:47:46.806Z,6.43
2018-08-09T15:50:18.681Z,5.27
2018-08-09T15:52:48.388Z,4.58
2018-08-09T15:55:18.870Z,8.18
2018-08-09T15:57:48.662Z,7.58
2018-08-09T16:00:20.893Z,5.80
2018-08-09T16:02:50.575Z,4.63
2018-08-09T16:05:20.341Z,3.95
2018-08-09T16:07:49.940Z,7.20
2018-08-09T16:10:19.680Z,8.70
2018-08-09T16:12:49.723Z,5.30
2018-08-09T16:15:20.234Z,6.00
2018-08-09T16:17:50.438Z,6.08
2018-08-09T16:20:20.095Z,8.85
2018-08-09T16:22:49.692Z,8.38
2018-08-09T16:25:20.515Z,9.23
2018-08-09T16:27:51.121Z,9.55
2018-08-09T16:30:23.528Z,8.43
2018-08-09T16:32:53.162Z,10.28
2018-08-09T16:35:22.942Z,9.10
2018-08-09T16:37:52.680Z,4.62
2018-08-09T16:40:24.892Z,14.27
2018-08-09T16:42:54.679Z,6.53
2018-08-09T16:45:25.254Z,4.55
2018-08-09T16:47:55.700Z,6.28
2018-08-09T16:50:26.209Z,6.53
2018-08-09T16:52:56.259Z,8.20
2018-08-09T16:55:26.613Z,6.50
2018-08-09T16:57:56.355Z,10.03
2018-08-09T17:00:26.258Z,6.50
2018-08-09T17:02:56.478Z,4.67
2018-08-09T17:05:27.785Z,4.97
2018-08-09T17:07:57.788Z,6.55
2018-08-09T17:10:27.696Z,6.53
2018-08-09T17:12:57.352Z,6.30
2018-08-09T17:15:28.418Z,8.03
2018-08-09T17:17:59.034Z,5.03
2018-08-09T17:20:31.167Z,7.15
2018-08-09T17:23:02.686Z,6.15
2018-08-09T17:25:32.626Z,6.08
2018-08-09T17:28:02.329Z,5.28
2018-08-09T17:30:31.875Z,5.00
2018-08-09T17:33:01.557Z,4.92
2018-08-09T17:35:31.091Z,8.38
2018-08-09T17:38:00.751Z,5.55
2018-08-09T17:40:33.620Z,8.33
2018-08-09T17:43:04.246Z,6.53
2018-08-09T17:45:35.363Z,8.35
2018-08-09T17:48:05.215Z,7.58
2018-08-09T17:50:34.855Z,7.67
2018-08-09T17:53:05.262Z,10.58
2018-08-09T17:55:35.233Z,5.12
2018-08-09T17:58:05.066Z,12.98
2018-08-09T18:00:35.539Z,4.22
2018-08-09T18:03:05.931Z,4.20
2018-08-09T18:05:36.262Z,5.28
2018-08-09T18:08:06.330Z,6.25
2018-08-09T18:10:36.704Z,6.47
2018-08-09T18:13:06.305Z,7.30
2018-08-09T18:15:36.104Z,11.43
2018-08-09T18:18:05.971Z,9.28
2018-08-09T18:20:37.079Z,7.10
2018-08-09T18:23:07.080Z,5.80
2018-08-09T18:25:36.668Z,6.78
2018-08-09T18:28:06.486Z,7.03
2018-08-09T18:30:36.137Z,7.62
2018-08-09T18:33:05.932Z,4.28
2018-08-09T18:35:35.608Z,7.00
2018-08-09T18:38:05.280Z,8.15
2018-08-09T18:40:34.886Z,9.35
2018-08-09T18:43:04.555Z,7.55
2018-08-09T18:45:34.139Z,9.75
2018-08-09T18:48:03.889Z,6.40
2018-08-09T18:50:33.524Z,2.98
2018-08-09T18:53:03.216Z,6.67
2018-08-09T18:55:32.916Z,6.47
2018-08-09T18:58:02.644Z,9.55
2018-08-09T19:00:32.352Z,4.62
2018-08-09T19:03:02.038Z,4.35
2018-08-09T19:05:31.625Z,8.43
2018-08-09T19:08:01.345Z,6.30
2018-08-09T19:10:31.447Z,5.35
2018-08-09T19:13:01.278Z,8.23
2018-08-09T19:15:30.841Z,7.20
2018-08-09T19:18:00.594Z,6.40
2018-08-09T19:20:32.013Z,6.50
2018-08-09T19:23:01.789Z,9.27
2018-08-09T19:25:31.746Z,5.55
2018-08-09T19:28:01.397Z,4.80
2018-08-09T19:30:31.459Z,5.47
2018-08-09T19:33:00.889Z,4.50
2018-08-09T19:35:30.311Z,7.57
2018-08-09T19:37:59.826Z,4.60
2018-08-09T19:40:30.850Z,6.37
2018-08-09T19:43:00.371Z,6.60
2018-08-09T19:45:29.893Z,6.77
2018-08-09T19:47:59.472Z,6.47
2018-08-09T19:50:28.986Z,7.47
2018-08-09T19:52:58.559Z,4.70
2018-08-09T19:55:28.348Z,8.27
2018-08-09T19:57:57.900Z,7.33
2018-08-09T20:00:29.527Z,6.47
2018-08-09T20:02:59.013Z,7.63
2018-08-09T20:05:28.484Z,5.33
2018-08-09T20:07:58.563Z,5.53
2018-08-09T20:10:28.205Z,5.47
2018-08-09T20:12:57.764Z,4.30
2018-08-09T20:15:27.387Z,10.00
2018-08-09T20:17:56.907Z,7.80
2018-08-09T20:20:27.108Z,7.37
2018-08-09T20:22:56.659Z,5.30
2018-08-09T20:25:26.268Z,6.03
2018-08-09T20:27:55.792Z,5.53
2018-08-09T20:30:25.427Z,5.00
2018-08-09T20:32:55.036Z,8.30
2018-08-09T20:35:25.248Z,8.23
2018-08-09T20:37:54.864Z,4.93
2018-08-09T20:40:24.815Z,4.42
2018-08-09T20:42:54.979Z,5.80
2018-08-09T20:45:25.119Z,6.03
2018-08-09T20:47:54.866Z,4.03
2018-08-09T20:50:26.341Z,9.10
2018-08-09T20:52:55.899Z,6.40
2018-08-09T20:55:25.728Z,3.90
2018-08-09T20:57:56.352Z,4.47
2018-08-09T21:00:30.444Z,8.00
2018-08-09T21:03:00.885Z,3.30
2018-08-09T21:05:33.499Z,3.40
2018-08-09T21:08:03.109Z,5.27
2018-08-09T21:10:32.706Z,6.07
2018-08-09T21:13:02.225Z,3.00
2018-08-09T21:15:31.833Z,4.67
2018-08-09T21:18:01.324Z,5.47
2018-08-09T21:20:31.025Z,3.87
2018-08-09T21:23:00.563Z,7.30
2018-08-09T21:25:30.148Z,6.30
2018-08-09T21:27:59.712Z,3.93
2018-08-09T21:30:29.265Z,3.00
2018-08-09T21:32:58.671Z,5.87
2018-08-09T21:35:28.079Z,3.80
2018-08-09T21:37:57.481Z,6.90
2018-08-09T21:40:26.906Z,6.10
2018-08-09T21:42:56.318Z,3.27
2018-08-09T21:45:25.738Z,3.40
2018-08-09T21:47:55.135Z,3.60
2018-08-09T21:50:24.539Z,6.07
2018-08-09T21:52:53.973Z,5.23
2018-08-09T21:55:23.367Z,4.40
2018-08-09T21:57:52.764Z,5.80
2018-08-09T22:00:53.011Z,6.13
2018-08-09T22:03:25.701Z,4.30
2018-08-09T22:06:00.367Z,7.17
2018-08-09T22:08:34.945Z,5.17
2018-08-09T22:11:09.864Z,6.00
2018-08-09T22:13:44.557Z,3.70
2018-08-09T22:16:19.212Z,6.28
2018-08-09T22:18:53.815Z,4.20
2018-08-09T22:21:28.473Z,3.30
2018-08-09T22:23:57.897Z,5.10
2018-08-09T22:26:27.322Z,6.53
2018-08-09T22:28:56.662Z,4.07
2018-08-09T22:31:26.034Z,4.50
2018-08-09T22:33:55.527Z,6.23
2018-08-09T22:36:24.875Z,4.70
2018-08-09T22:38:54.224Z,4.95
2018-08-09T22:41:23.572Z,5.63
2018-08-09T22:43:52.929Z,3.57
2018-08-09T22:46:22.271Z,4.07
2018-08-09T22:48:51.647Z,6.47
2018-08-09T22:51:20.992Z,3.17
2018-08-09T22:53:50.327Z,5.63
2018-08-09T22:56:19.698Z,4.97
2018-08-09T22:58:49.036Z,5.53
2018-08-09T23:01:18.384Z,4.20
2018-08-09T23:03:47.805Z,5.33
2018-08-09T23:06:17.112Z,6.63
2018-08-09T23:08:46.467Z,6.47
2018-08-09T23:11:15.825Z,3.67
2018-08-09T23:13:45.182Z,6.60
2018-08-09T23:16:14.531Z,4.87
2018-08-09T23:18:43.871Z,5.30
2018-08-09T23:21:13.205Z,5.57
2018-08-09T23:23:42.559Z,3.53
2018-08-09T23:26:11.899Z,4.50
2018-08-09T23:28:41.274Z,5.83
2018-08-09T23:31:10.611Z,3.67
2018-08-09T23:33:39.947Z,5.13
2018-08-09T23:51:12.635Z,3.87
2018-08-09T23:53:41.992Z,3.57
2018-08-09T23:56:11.391Z,5.23
2018-08-09T23:58:40.803Z,3.67
